Time;durP1;ratioP1;P1;durP2;ratioP2;P2;SDS_P1;SDS_P2;PMS_P1;PMS_P2;Temp;Humidity;BMP_temperature;BMP_pressure;BME280_temperature;BME280_humidity;BME280_pressure;Samples;Min_cycle;Max_cycle;Signal;HPM_P1;HPM_P2
2023/08/06 21:20:55;;;;;;;16.08;0.82;;;;;;;;;;5134012;27;20559;-67
2023/08/06 21:23:24;;;;;;;5.45;0.80;;;;;;;;;;5123897;27;42298;-67
2023/08/06 21:25:55;;;;;;;5.35;0.90;;;;;;;;;;5124377;27;40031;-75
2023/08/06 21:28:23;;;;;;;4.22;0.80;;;;;;;;;;5123182;27;41194;-69
2023/08/06 21:30:54;;;;;;;6.85;0.80;;;;;;;;;;5122825;27;43871;-69
2023/08/06 21:33:22;;;;;;;3.92;0.90;;;;;;;;;;5123414;27;40110;-69
2023/08/06 21:35:50;;;;;;;8.05;1.35;;;;;;;;;;5127413;27;41115;-69
2023/08/06 21:38:19;;;;;;;6.65;1.20;;;;;;;;;;5132565;27;41974;-67
2023/08/06 21:40:47;;;;;;;10.23;0.85;;;;;;;;;;5124280;27;41586;-67
2023/08/06 21:43:15;;;;;;;7.80;1.10;;;;;;;;;;5123815;27;41886;-68
2023/08/06 21:45:43;;;;;;;5.28;0.85;;;;;;;;;;5123771;27;38954;-67
2023/08/06 21:48:11;;;;;;;11.05;0.80;;;;;;;;;;5127511;27;41004;-66
2023/08/06 21:50:39;;;;;;;6.10;0.82;;;;;;;;;;5131728;27;42660;-68
2023/08/06 21:53:07;;;;;;;7.03;0.82;;;;;;;;;;5140102;27;40285;-67
2023/08/06 21:55:37;;;;;;;6.28;0.65;;;;;;;;;;5133041;27;43361;-67
2023/08/06 21:58:04;;;;;;;4.50;0.75;;;;;;;;;;5121659;27;42045;-67
2023/08/06 22:00:33;;;;;;;7.20;0.77;;;;;;;;;;5136007;27;39768;-67
2023/08/06 22:03:00;;;;;;;2.30;0.57;;;;;;;;;;5131817;27;40648;-67
2023/08/06 22:05:28;;;;;;;6.18;0.60;;;;;;;;;;5129401;27;40233;-67
2023/08/06 22:07:56;;;;;;;2.97;0.77;;;;;;;;;;5133124;27;41615;-67
2023/08/06 22:10:25;;;;;;;6.20;0.82;;;;;;;;;;5123111;27;41879;-67
2023/08/06 22:12:54;;;;;;;2.15;0.45;;;;;;;;;;5122716;27;40627;-67
2023/08/06 22:15:22;;;;;;;2.45;0.70;;;;;;;;;;5122589;27;42200;-68
2023/08/06 22:17:50;;;;;;;3.33;0.57;;;;;;;;;;5123118;27;41601;-67
2023/08/06 22:20:18;;;;;;;3.13;0.52;;;;;;;;;;5121856;27;40070;-66
2023/08/06 22:22:46;;;;;;;2.13;0.43;;;;;;;;;;5122956;27;42480;-68
2023/08/06 22:25:15;;;;;;;5.32;0.55;;;;;;;;;;5122843;27;42852;-67
2023/08/06 22:27:43;;;;;;;1.63;0.40;;;;;;;;;;5112529;27;41584;-66
2023/08/06 22:30:12;;;;;;;3.90;0.82;;;;;;;;;;5116446;27;41863;-65
2023/08/06 22:32:42;;;;;;;3.85;0.35;;;;;;;;;;5124166;27;40050;-66
2023/08/06 22:35:11;;;;;;;1.88;0.38;;;;;;;;;;5114338;27;41789;-65
2023/08/06 22:37:39;;;;;;;3.10;0.50;;;;;;;;;;5108921;27;42302;-67
2023/08/06 22:40:07;;;;;;;4.70;0.50;;;;;;;;;;5118481;27;40931;-67
2023/08/06 22:42:38;;;;;;;6.40;0.57;;;;;;;;;;5115909;27;41968;-67
2023/08/06 22:45:06;;;;;;;4.50;0.57;;;;;;;;;;5109884;27;42114;-67
2023/08/06 22:47:35;;;;;;;3.20;0.50;;;;;;;;;;5107702;27;40230;-67
2023/08/06 22:50:04;;;;;;;3.47;0.60;;;;;;;;;;5108748;27;42381;-67
2023/08/06 22:52:32;;;;;;;1.80;0.60;;;;;;;;;;5108909;27;40225;-67
2023/08/06 22:55:00;;;;;;;0.88;0.30;;;;;;;;;;5109137;27;41535;-68
2023/08/06 22:57:46;;;;;;;0.50;0.30;;;;;;;;;;5094957;27;42143;-67
2023/08/06 23:00:14;;;;;;;1.23;0.40;;;;;;;;;;5103927;27;40477;-67
2023/08/06 23:02:43;;;;;;;1.00;0.30;;;;;;;;;;5115260;27;42761;-68
2023/08/06 23:05:30;;;;;;;1.83;0.40;;;;;;;;;;5115072;27;42337;-68
2023/08/06 23:07:58;;;;;;;2.35;0.35;;;;;;;;;;5129243;27;39798;-68
2023/08/06 23:10:26;;;;;;;1.60;0.40;;;;;;;;;;5130081;27;41717;-67
2023/08/06 23:12:54;;;;;;;0.68;0.30;;;;;;;;;;5114765;27;41454;-67
2023/08/06 23:15:22;;;;;;;5.43;0.47;;;;;;;;;;5108464;27;41646;-67
2023/08/06 23:17:51;;;;;;;2.60;0.30;;;;;;;;;;5108471;27;41328;-67
2023/08/06 23:20:20;;;;;;;2.00;0.40;;;;;;;;;;5107987;27;40187;-68
2023/08/06 23:22:48;;;;;;;0.30;0.13;;;;;;;;;;5108575;27;41434;-67
2023/08/06 23:25:16;;;;;;;0.65;0.30;;;;;;;;;;5109191;27;41869;-65
2023/08/06 23:27:44;;;;;;;1.48;0.40;;;;;;;;;;5108061;27;41388;-62
2023/08/06 23:30:12;;;;;;;1.50;0.40;;;;;;;;;;5108356;27;41263;-66
2023/08/06 23:32:41;;;;;;;1.85;0.38;;;;;;;;;;5108582;27;32496;-67
2023/08/06 23:35:10;;;;;;;1.15;0.30;;;;;;;;;;5108574;27;41790;-67
2023/08/06 23:37:38;;;;;;;4.75;0.60;;;;;;;;;;5107417;27;42519;-67
2023/08/06 23:40:07;;;;;;;1.95;0.52;;;;;;;;;;5107797;27;40168;-67
2023/08/06 23:42:35;;;;;;;1.38;0.40;;;;;;;;;;5106107;27;42795;-66
2023/08/06 23:45:03;;;;;;;1.08;0.28;;;;;;;;;;5108033;27;42128;-67
2023/08/06 23:47:31;;;;;;;3.42;0.40;;;;;;;;;;5107938;27;40280;-67
2023/08/06 23:49:59;;;;;;;2.03;0.40;;;;;;;;;;5108492;27;42236;-66
2023/08/06 23:52:29;;;;;;;1.15;0.25;;;;;;;;;;5108219;27;43082;-67
2023/08/06 23:54:56;;;;;;;1.55;0.40;;;;;;;;;;5108342;27;42655;-65
2023/08/06 23:57:24;;;;;;;2.28;0.47;;;;;;;;;;5107530;27;42575;-67
2023/08/06 23:59:52;;;;;;;1.27;0.30;;;;;;;;;;5108444;27;41145;-65
